Map

Track Data

SID SEASON NUMBER BASIN SUBBASIN NAME ISO_TIME NATURE LAT LON WMO_WIND WMO_PRES WMO_AGENCY TRACK_TYPE DIST2LAND LANDFALL IFLAG USA_AGENCY USA_ATCF_ID USA_LAT USA_LON USA_RECORD USA_STATUS USA_WIND USA_PRES USA_SSHS USA_R34_NE USA_R34_SE USA_R34_SW USA_R34_NW USA_R50_NE USA_R50_SE USA_R50_SW USA_R50_NW USA_R64_NE USA_R64_SE USA_R64_SW USA_R64_NW USA_POCI USA_ROCI USA_RMW USA_EYE TOKYO_LAT TOKYO_LON TOKYO_GRADE TOKYO_WIND TOKYO_PRES TOKYO_R50_DIR TOKYO_R50_LONG TOKYO_R50_SHORT TOKYO_R30_DIR TOKYO_R30_LONG TOKYO_R30_SHORT TOKYO_LAND CMA_LAT CMA_LON CMA_CAT CMA_WIND CMA_PRES HKO_LAT HKO_LON HKO_CAT HKO_WIND HKO_PRES NEWDELHI_LAT NEWDELHI_LON NEWDELHI_GRADE NEWDELHI_WIND NEWDELHI_PRES NEWDELHI_CI NEWDELHI_DP NEWDELHI_POCI REUNION_LAT REUNION_LON REUNION_TYPE REUNION_WIND REUNION_PRES REUNION_TNUM REUNION_CI REUNION_RMW REUNION_R34_NE REUNION_R34_SE REUNION_R34_SW REUNION_R34_NW REUNION_R50_NE REUNION_R50_SE REUNION_R50_SW REUNION_R50_NW REUNION_R64_NE REUNION_R64_SE REUNION_R64_SW REUNION_R64_NW BOM_LAT BOM_LON BOM_TYPE BOM_WIND BOM_PRES BOM_TNUM BOM_CI BOM_RMW BOM_R34_NE BOM_R34_SE BOM_R34_SW BOM_R34_NW BOM_R50_NE BOM_R50_SE BOM_R50_SW BOM_R50_NW BOM_R64_NE BOM_R64_SE BOM_R64_SW BOM_R64_NW BOM_ROCI BOM_POCI BOM_EYE BOM_POS_METHOD BOM_PRES_METHOD NADI_LAT NADI_LON NADI_CAT NADI_WIND NADI_PRES WELLINGTON_LAT WELLINGTON_LON WELLINGTON_WIND WELLINGTON_PRES DS824_LAT DS824_LON DS824_STAGE DS824_WIND DS824_PRES TD9636_LAT TD9636_LON TD9636_STAGE TD9636_WIND TD9636_PRES TD9635_LAT TD9635_LON TD9635_WIND TD9635_PRES TD9635_ROCI NEUMANN_LAT NEUMANN_LON NEUMANN_CLASS NEUMANN_WIND NEUMANN_PRES MLC_LAT MLC_LON MLC_CLASS MLC_WIND MLC_PRES USA_GUST BOM_GUST BOM_GUST_PER REUNION_GUST REUNION_GUST_PER USA_SEAHGT USA_SEARAD_NE USA_SEARAD_SE USA_SEARAD_SW USA_SEARAD_NW STORM_SPEED STORM_DIR
1995252N08142 1995 62 WP MM POLLY 1995-09-09 00:00:00 NR 8.10000 141.800 main 1158 1150 O_____________ jtwc_wp WP181995 8.10000 141.800 15 -1 11 284
1995252N08142 1995 62 WP MM POLLY 1995-09-09 03:00:00 NR 8.23267 141.275 main 1150 1147 P_____________ WP181995 8.23267 141.275 15 -1 10 287
1995252N08142 1995 62 WP MM POLLY 1995-09-09 06:00:00 NR 8.40000 140.800 main 1157 1154 O_____________ jtwc_wp WP181995 8.40000 140.800 15 -1 9 296
1995252N08142 1995 62 WP MM POLLY 1995-09-09 09:00:00 NR 8.63994 140.412 main 1165 1165 P_____________ WP181995 8.63994 140.412 15 -1 9 311
1995252N08142 1995 62 WP MM POLLY 1995-09-09 12:00:00 NR 9.00000 140.100 main 1192 1192 O_____________ jtwc_wp WP181995 9.00000 140.100 15 -1 11 328
1995252N08142 1995 62 WP MM POLLY 1995-09-09 15:00:00 NR 9.54241 139.850 main 1232 1232 P_____________ WP181995 9.54241 139.850 17 -1 12 336
1995252N08142 1995 62 WP MM POLLY 1995-09-09 18:00:00 NR 10.1000 139.600 main 1288 1288 O_____________ jtwc_wp WP181995 10.1000 139.600 20 -1 11 331
1995252N08142 1995 62 WP MM POLLY 1995-09-09 21:00:00 NR 10.4798 139.317 main 1320 1320 P_____________ WP181995 10.4798 139.317 20 -1 10 315
1995252N08142 1995 62 WP MM POLLY 1995-09-10 00:00:00 NR 10.8000 138.900 main 1339 1336 O_____________ jtwc_wp WP181995 10.8000 138.900 20 -1 12 306
1995252N08142 1995 62 WP MM POLLY 1995-09-10 03:00:00 NR 11.1947 138.305 main 1342 1274 P_____________ WP181995 11.1947 138.305 20 -1 15 297
1995252N08142 1995 62 WP MM POLLY 1995-09-10 06:00:00 NR 11.5000 137.500 main 1263 1169 O_____________ jtwc_wp WP181995 11.5000 137.500 20 -1 18 283
1995252N08142 1995 62 WP MM POLLY 1995-09-10 09:00:00 NR 11.5949 136.525 main 1158 1052 P_____________ WP181995 11.5949 136.525 20 -1 21 273
1995252N08142 1995 62 WP MM POLLY 1995-09-10 12:00:00 NR 11.6000 135.400 main 1042 926 O_____________ jtwc_wp WP181995 11.6000 135.400 20 -1 22 271
1995252N08142 1995 62 WP MM POLLY 1995-09-10 15:00:00 NR 11.6420 134.245 main 915 800 P_____________ WP181995 11.6420 134.245 20 -1 24 272
1995252N08142 1995 62 WP MM POLLY 1995-09-10 18:00:00 NR 11.7000 133.000 main 789 649 O_____________ jtwc_wp WP181995 11.7000 133.000 20 -1 26 273
1995252N08142 1995 62 WP MM POLLY 1995-09-10 21:00:00 NR 11.7704 131.612 main 638 511 P_____________ WP181995 11.7704 131.612 20 -1 27 274
1995252N08142 1995 62 WP MM POLLY 1995-09-11 00:00:00 NR 11.9000 130.300 main 501 411 O_____________ jtwc_wp WP181995 11.9000 130.300 20 -1 23 279
1995252N08142 1995 62 WP MM POLLY 1995-09-11 03:00:00 NR 12.1188 129.305 main 400 326 P_____________ WP181995 12.1188 129.305 20 -1 19 285
1995252N08142 1995 62 WP MM POLLY 1995-09-11 06:00:00 NR 12.4000 128.400 main 316 213 O_____________ jtwc_wp WP181995 12.4000 128.400 20 -1 20 287
1995252N08142 1995 62 WP MM POLLY 1995-09-11 09:00:00 NR 12.6924 127.350 main 203 132 P_____________ WP181995 12.6924 127.350 20 -1 21 286
1995252N08142 1995 62 WP MM POLLY 1995-09-11 12:00:00 NR 13.0000 126.300 main 124 84 O_____________ jtwc_wp WP181995 13.0000 126.300 20 -1 22 287
1995252N08142 1995 62 WP MM POLLY 1995-09-11 15:00:00 NR 13.3304 125.215 main 89 10 P_____________ WP181995 13.3304 125.215 20 -1 19 288
1995252N08142 1995 62 WP MM POLLY 1995-09-11 18:00:00 NR 13.6000 124.400 main 10 0 O_____________ jtwc_wp WP181995 13.6000 124.400 20 -1 11 291
1995252N08142 1995 62 WP MM POLLY 1995-09-11 21:00:00 NR 13.7293 124.160 main 0 0 P_____________ WP181995 13.7293 124.160 20 -1 4 304
1995252N08142 1995 62 WP MM POLLY 1995-09-12 00:00:00 NR 13.8000 124.100 main 0 0 O_____________ jtwc_wp WP181995 13.8000 124.100 20 -1 4 293
1995252N08142 1995 62 WP MM POLLY 1995-09-12 03:00:00 NR 13.8926 123.765 main 10 0 P_____________ WP181995 13.8926 123.765 20 -1 7 286
1995252N08142 1995 62 WP MM POLLY 1995-09-12 06:00:00 NR 14.0000 123.400 main 10 0 O_____________ jtwc_wp WP181995 14.0000 123.400 20 -1 7 291
1995252N08142 1995 62 WP MM POLLY 1995-09-12 09:00:00 NR 14.1350 123.113 main 10 10 P_____________ WP181995 14.1350 123.113 20 -1 6 302
1995252N08142 1995 62 WP MM POLLY 1995-09-12 12:00:00 NR 14.3000 122.900 main 11 11 O_____________ jtwc_wp WP181995 14.3000 122.900 20 -1 5 317
1995252N08142 1995 62 WP MM POLLY 1995-09-12 15:00:00 NR 14.4925 122.770 main 33 33 P_____________ WP181995 14.4925 122.770 20 -1 4 334
1995252N08142 1995 62 WP MM POLLY 1995-09-12 18:00:00 NR 14.7000 122.700 main 55 55 O_____________ jtwc_wp WP181995 14.7000 122.700 20 -1 4 341
1995252N08142 1995 62 WP MM POLLY 1995-09-12 21:00:00 NR 14.8925 122.628 main 78 78 P_____________ WP181995 14.8925 122.628 20 -1 4 347
1995252N08142 1995 62 WP MM POLLY 1995-09-13 00:00:00 NR 15.1000 122.600 main 100 100 O_____________ jtwc_wp WP181995 15.1000 122.600 20 -1 5 0
1995252N08142 1995 62 WP MM POLLY 1995-09-13 03:00:00 NR 15.3425 122.627 main 101 85 P_____________ WP181995 15.3425 122.627 20 -1 5 11
1995252N08142 1995 62 WP MM POLLY 1995-09-13 06:00:00 NR 15.6000 122.700 main 85 77 O_____________ jtwc_wp WP181995 15.6000 122.700 20 -1 5 17
1995252N08142 1995 62 WP MM POLLY 1995-09-13 09:00:00 NR 15.8575 122.792 main 72 67 P_____________ WP181995 15.8575 122.792 20 -1 5 21
1995252N08142 1995 62 WP MM POLLY 1995-09-13 12:00:00 NR 16.1000 122.900 main 75 74 O_____________ jtwc_wp WP181995 16.1000 122.900 20 -1 5 23
1995252N08142 1995 62 WP MM POLLY 1995-09-13 15:00:00 NR 16.3225 123.000 main 81 77 P_____________ WP181995 16.3225 123.000 20 -1 4 26
1995252N08142 1995 62 WP MM POLLY 1995-09-13 18:00:00 NR 16.5000 123.100 main 78 72 O_____________ jtwc_wp WP181995 16.5000 123.100 20 -1 4 33
1995252N08142 1995 62 WP MM POLLY 1995-09-13 21:00:00 NR 16.6150 123.200 main 81 81 P_____________ WP181995 16.6150 123.200 22 -1 3 80
1995252N08142 1995 62 WP MM POLLY 1995-09-14 00:00:00 TS 16.5600 123.440 1000 tokyo main 101 101 OO____________ jtwc_wp WP181995 16.7000 123.300 25 -1 16.0000 124.000 2 1000 0 0 0 3 99
1995252N08142 1995 62 WP MM POLLY 1995-09-14 03:00:00 TS 16.5684 123.525 main 111 111 PP____________ WP181995 16.8075 123.400 27 -1 16.0901 123.775 2 1000 0 0 1 95
1995252N08142 1995 62 WP MM POLLY 1995-09-14 06:00:00 TS 16.5500 123.550 1000 tokyo main 121 111 OOO___________ jtwc_wp WP181995 16.9000 123.500 30 -1 16.2000 123.600 2 1000 0 0 0 16.2000 123.600 1 29 998 0 0
1995252N08142 1995 62 WP MM POLLY 1995-09-14 09:00:00 TS 16.5895 123.548 main 111 111 PPP___________ WP181995 16.9575 123.593 30 -1 16.3425 123.512 2 1000 0 0 16.3475 123.530 1 29 998 1 0
1995252N08142 1995 62 WP MM POLLY 1995-09-14 12:00:00 TS 16.6818 123.573 1000 tokyo main 119 117 OOO___________ jtwc_wp WP181995 17.0000 123.700 30 -1 16.5000 123.500 2 1000 0 0 0 16.5000 123.500 1 29 998 2 23
1995252N08142 1995 62 WP MM POLLY 1995-09-14 15:00:00 TS 16.7858 123.635 main 117 117 PPP___________ WP181995 17.0425 123.835 32 -1 16.6575 123.535 2 1000 0 0 16.6575 123.535 1 29 998 3 33
1995252N08142 1995 62 WP MM POLLY 1995-09-14 18:00:00 TS 16.9077 123.723 1000 tokyo main 127 127 OOOO__________ jtwc_wp WP181995 17.1000 124.000 35 0 16.8000 123.600 2 1000 0 0 0 16.8000 123.600 1 29 998 17.0000 123.600 TD 30 1000 3 35
1995252N08142 1995 62 WP MM POLLY 1995-09-14 21:00:00 TS 17.0056 123.796 main 138 138 PPPP__________ WP181995 17.2000 124.192 35 0 16.8999 123.598 2 999 0 0 16.8999 123.598 1 31 998 17.0401 123.797 TD 30 1000 3 48
1995252N08142 1995 62 WP MM POLLY 1995-09-15 00:00:00 TS 17.1000 123.947 35 998 tokyo main 149 149 OOOO__________ jtwc_wp WP181995 17.3000 124.400 35 0 17.0000 123.700 3 35 998 0 9 90 90 0 17.0000 123.700 2 34 998 17.1000 124.000 TD 30 1000 5 63
1995252N08142 1995 62 WP MM POLLY 1995-09-15 03:00:00 TS 17.2106 124.223 main 182 182 PPPP__________ WP181995 17.3498 124.563 35 0 17.1502 124.055 3 35 998 0 9 90 90 17.1502 124.055 2 34 998 17.1924 124.220 TD 30 1000 6 69
1995252N08142 1995 62 WP MM POLLY 1995-09-15 06:00:00 TS 17.3250 124.575 35 998 tokyo main 225 225 OOOO__________ jtwc_wp WP181995 17.4000 124.800 35 0 17.3000 124.500 3 35 998 0 9 90 90 0 17.3000 124.500 2 34 998 17.3000 124.500 TD 30 1000 7 73
1995252N08142 1995 62 WP MM POLLY 1995-09-15 09:00:00 TS 17.4192 124.933 main 258 258 PPPP__________ WP181995 17.4773 125.175 35 0 17.3998 124.843 3 35 998 0 9 90 90 17.3998 124.843 2 34 998 17.4000 124.870 TD 30 1000 8 75
1995252N08142 1995 62 WP MM POLLY 1995-09-15 12:00:00 TS 17.5250 125.350 35 998 tokyo main 313 313 OOOO__________ jtwc_wp WP181995 17.6000 125.700 35 0 17.5000 125.200 3 35 998 0 9 90 90 0 17.5000 125.200 2 34 998 17.5000 125.300 TD 30 1000 9 73
1995252N08142 1995 62 WP MM POLLY 1995-09-15 15:00:00 TS 17.6671 125.801 main 358 358 PPPP__________ WP181995 17.7925 126.355 37 0 17.6420 125.575 3 35 998 0 9 90 90 17.6420 125.575 2 34 998 17.5921 125.698 TD 30 1000 10 73
1995252N08142 1995 62 WP MM POLLY 1995-09-15 18:00:00 TS 17.8250 126.375 35 998 tokyo main 423 423 OOOO__________ jtwc_wp WP181995 18.0000 127.100 40 0 17.8000 126.100 3 35 998 0 9 90 90 0 17.8000 126.100 2 34 998 17.7000 126.200 TD 30 1000 13 77
1995252N08142 1995 62 WP MM POLLY 1995-09-15 21:00:00 TS 17.9677 127.134 main 500 500 PPPP__________ WP181995 18.1574 127.850 42 0 17.9429 126.898 3 37 997 0 9 120 95 17.9429 126.898 2 39 994 17.8275 126.890 TD 32 998 16 79
1995252N08142 1995 62 WP MM POLLY 1995-09-16 00:00:00 TS 18.1250 127.975 40 996 tokyo main 596 596 OOOO__________ jtwc_wp WP181995 18.3000 128.600 45 0 18.1000 127.800 3 40 996 0 4 150 100 0 18.1000 127.800 2 44 990 18.0000 127.700 TS 35 996 16 77
1995252N08142 1995 62 WP MM POLLY 1995-09-16 03:00:00 TS 18.3189 128.757 main 680 680 PPPP__________ WP181995 18.4571 129.300 45 0 18.2920 128.600 3 40 996 0 4 150 100 18.2920 128.600 2 44 990 18.2347 128.528 TS 35 996 15 75
1995252N08142 1995 62 WP MM POLLY 1995-09-16 06:00:00 TS 18.5250 129.550 40 996 tokyo main 757 749 OOOO__________ jtwc_wp WP181995 18.6000 130.000 45 0 18.5000 129.400 3 40 996 0 4 150 100 0 18.5000 129.400 2 44 990 18.5000 129.400 TS 35 996 16 75
1995252N08142 1995 62 WP MM POLLY 1995-09-16 09:00:00 TS 18.7213 130.360 main 835 835 PPPP__________ WP181995 18.7071 130.728 45 0 18.6993 130.213 3 42 995 0 4 200 125 18.7068 130.213 2 44 990 18.7721 130.285 TS 35 996 16 77
1995252N08142 1995 62 WP MM POLLY 1995-09-16 12:00:00 TS 18.9000 131.225 45 994 tokyo main 916 916 OOOO__________ jtwc_wp WP181995 18.8000 131.500 45 0 18.9000 131.100 3 45 994 0 4 250 150 0 18.9000 131.100 2 44 990 19.0000 131.200 TS 35 996 18 79
1995252N08142 1995 62 WP MM POLLY 1995-09-16 15:00:00 TS 19.0487 132.187 main 1008 1008 PPPP__________ WP181995 18.8996 132.320 45 0 19.1077 132.142 3 45 993 0 4 250 150 19.0502 132.143 2 44 990 19.1371 132.143 TS 37 994 19 82
1995252N08142 1995 62 WP MM POLLY 1995-09-16 18:00:00 TS 19.1750 133.175 45 992 tokyo main 1109 1109 OOOO__________ jtwc_wp WP181995 19.0000 133.200 45 0 19.3000 133.200 3 45 992 0 4 250 150 0 19.2000 133.200 2 44 990 19.2000 133.100 TS 40 992 18 82
1995252N08142 1995 62 WP MM POLLY 1995-09-16 21:00:00 TS 19.3134 134.120 main 1197 1197 PPPP__________ WP181995 19.1076 134.157 45 0 19.5018 134.130 3 45 991 0 4 240 190 19.4368 134.129 2 44 990 19.2072 134.065 TS 40 992 18 83
1995252N08142 1995 62 WP MM POLLY 1995-09-17 00:00:00 TS 19.4000 135.025 45 990 tokyo main 1285 1285 OOOO__________ jtwc_wp WP181995 19.2000 135.100 45 0 19.6000 135.000 3 45 990 0 9 230 230 0 19.6000 135.000 2 44 990 19.2000 135.000 TS 40 992 17 89
1995252N08142 1995 62 WP MM POLLY 1995-09-17 03:00:00 TS 19.3476 135.934 main 1366 1366 PPPP__________ WP181995 19.2426 135.998 45 0 19.4351 135.911 3 47 987 0 9 255 255 19.5001 135.911 2 46 987 19.2125 135.918 TS 42 991 16 93
1995252N08142 1995 62 WP MM POLLY 1995-09-17 06:00:00 TS 19.3250 136.700 50 985 tokyo main 1437 1437 OOOO__________ jtwc_wp WP181995 19.3000 136.700 45 0 19.3000 136.700 4 50 985 0 9 280 280 0 19.4000 136.700 3 48 985 19.3000 136.700 TS 45 990 13 83
1995252N08142 1995 62 WP MM POLLY 1995-09-17 09:00:00 TS 19.4921 137.251 main 1445 1434 PPPP__________ WP181995 19.4195 137.105 47 0 19.4896 137.289 4 50 985 0 9 280 280 19.5471 137.290 3 48 985 19.5122 137.320 TS 47 987 10 63
1995252N08142 1995 62 WP MM POLLY 1995-09-17 12:00:00 TS 19.7500 137.600 50 985 tokyo main 1429 1419 OOOO__________ jtwc_wp WP181995 19.6000 137.300 50 0 19.8000 137.700 4 50 985 0 9 280 280 0 19.8000 137.700 3 48 985 19.8000 137.700 STS 50 985 7 47
1995252N08142 1995 62 WP MM POLLY 1995-09-17 15:00:00 TS 19.9917 137.826 main 1419 1395 PPPP__________ WP181995 19.8124 137.438 55 0 20.0498 138.018 4 52 982 0 9 295 295 20.0273 138.025 3 53 982 20.0773 137.825 STS 52 982 6 30
1995252N08142 1995 62 WP MM POLLY 1995-09-17 18:00:00 TS 20.2750 137.925 55 980 tokyo main 1395 1371 OOOO__________ jtwc_wp WP181995 20.1000 137.500 60 0 20.3000 138.200 4 55 980 9 50 50 9 310 310 0 20.3000 138.200 3 58 980 20.4000 137.800 STS 55 980 6 14
1995252N08142 1995 62 WP MM POLLY 1995-09-17 21:00:00 TS 20.5912 137.982 main 1371 1332 PPPP__________ WP181995 20.4550 137.558 65 1 20.5124 138.303 4 57 977 9 55 55 9 330 330 20.6124 138.260 3 58 980 20.7850 137.808 STS 57 977 7 3
1995252N08142 1995 62 WP MM POLLY 1995-09-18 00:00:00 TS 20.9750 137.975 60 975 tokyo main 1332 1289 OOOO__________ jtwc_wp WP181995 20.9000 137.600 70 1 20.8000 138.300 4 60 975 9 60 60 9 350 350 0 21.0000 138.200 3 58 980 21.2000 137.800 STS 60 975 9 358
1995252N08142 1995 62 WP MM POLLY 1995-09-18 03:00:00 TS 21.4363 137.933 main 1289 1241 PPPP__________ WP181995 21.4350 137.643 75 1 21.2475 138.230 4 60 975 9 60 60 9 350 350 21.4776 138.058 3 63 977 21.5850 137.800 STS 62 972 10 354
1995252N08142 1995 62 WP MM POLLY 1995-09-18 06:00:00 TS 21.9500 137.875 60 975 tokyo main 1231 1187 OOOO__________ jtwc_wp WP181995 22.0000 137.700 80 1 21.8000 138.100 4 60 975 9 60 60 9 350 350 0 22.0000 137.900 4 68 975 22.0000 137.800 T 65 970 10 355
1995252N08142 1995 62 WP MM POLLY 1995-09-18 09:00:00 TS 22.4694 137.841 main 1178 1130 PPPP__________ WP181995 22.5075 137.800 85 2 22.3925 137.935 4 62 972 9 65 65 9 350 350 22.4925 137.827 4 68 972 22.4850 137.800 T 65 970 11 358
1995252N08142 1995 62 WP MM POLLY 1995-09-18 12:00:00 TS 23.0000 137.825 65 970 tokyo main 1130 1083 OOOO__________ jtwc_wp WP181995 23.0000 137.900 90 2 23.0000 137.800 5 65 970 9 70 70 9 350 350 0 23.0000 137.800 4 68 970 23.0000 137.800 T 65 970 11 359
1995252N08142 1995 62 WP MM POLLY 1995-09-18 15:00:00 TS 23.5456 137.817 main 1083 1038 PPPP__________ WP181995 23.5150 137.943 90 2 23.5875 137.762 5 67 967 9 75 75 9 350 350 23.5725 137.778 4 68 967 23.5075 137.785 T 67 967 11 0
1995252N08142 1995 62 WP MM POLLY 1995-09-18 18:00:00 TS 24.0500 137.850 70 965 tokyo main 1029 1008 OOOO__________ jtwc_wp WP181995 24.0000 138.000 90 2 24.1000 137.800 5 70 965 9 80 80 9 350 350 0 24.1000 137.800 4 68 965 24.0000 137.800 T 70 965 9 5
1995252N08142 1995 62 WP MM POLLY 1995-09-18 21:00:00 TS 24.4561 137.907 main 999 979 PPPP__________ WP181995 24.4074 138.105 90 2 24.4723 137.840 5 70 965 9 80 80 9 375 375 24.4723 137.840 4 68 965 24.4723 137.840 T 70 965 8 15
1995252N08142 1995 62 WP MM POLLY 1995-09-19 00:00:00 TS 24.8250 138.075 70 965 tokyo main 985 946 OOOO__________ jtwc_wp WP181995 24.8000 138.300 90 2 24.8000 138.000 5 70 965 9 80 80 9 400 400 0 24.8000 138.000 4 68 965 24.9000 138.000 T 70 965 9 30
1995252N08142 1995 62 WP MM POLLY 1995-09-19 03:00:00 TS 25.2155 138.392 main 949 917 PPPP__________ WP181995 25.2423 138.590 90 2 25.1849 138.325 5 72 962 9 80 80 9 400 400 25.1849 138.325 4 72 962 25.2499 138.325 T 70 965 11 41
1995252N08142 1995 62 WP MM POLLY 1995-09-19 06:00:00 TS 25.6250 138.850 75 960 tokyo main 917 892 OOOO__________ jtwc_wp WP181995 25.7000 139.000 90 2 25.6000 138.800 5 75 960 9 80 80 9 400 400 0 25.6000 138.800 4 77 960 25.6000 138.800 T 70 965 12 48
1995252N08142 1995 62 WP MM POLLY 1995-09-19 09:00:00 TS 26.0292 139.402 main 895 869 PPPP__________ WP181995 26.1275 139.513 90 2 25.9715 139.353 5 75 960 9 80 80 9 400 400 26.0051 139.371 4 77 960 26.0126 139.370 T 72 962 14 50
1995252N08142 1995 62 WP MM POLLY 1995-09-19 12:00:00 TS 26.5250 140.025 75 960 tokyo main 869 830 OOOO__________ jtwc_wp WP181995 26.6000 140.100 90 2 26.5000 140.000 5 75 960 9 80 80 9 400 400 0 26.5000 140.000 4 77 960 26.5000 140.000 T 75 960 16 44
1995252N08142 1995 62 WP MM POLLY 1995-09-19 15:00:00 TS 27.1924 140.650 75 960 tokyo main 830 792 POPP__________ WP181995 27.1848 140.693 90 2 27.3000 140.700 5 75 960 9 80 80 9 400 400 0 27.1998 140.607 4 77 960 27.0848 140.600 T 75 960 17 39
1995252N08142 1995 62 WP MM POLLY 1995-09-19 18:00:00 TS 27.8250 141.225 75 960 tokyo main 792 754 OOOO__________ jtwc_wp WP181995 27.8000 141.300 90 2 27.9000 141.200 5 75 960 9 80 80 9 400 400 0 27.9000 141.200 4 77 960 27.7000 141.200 T 75 960 15 41
1995252N08142 1995 62 WP MM POLLY 1995-09-19 21:00:00 TS 28.3539 141.798 75 960 tokyo main 746 716 POPP__________ WP181995 28.3720 141.886 90 2 28.4000 141.800 5 75 960 9 80 80 9 400 400 0 28.3791 141.722 4 77 960 28.2645 141.786 T 75 960 14 45
1995252N08142 1995 62 WP MM POLLY 1995-09-20 00:00:00 TS 28.8250 142.375 75 960 tokyo main 720 689 OOOO__________ jtwc_wp WP181995 28.9000 142.500 90 2 28.8000 142.300 5 75 960 9 80 80 9 350 350 0 28.8000 142.300 4 77 960 28.8000 142.400 T 75 960 15 49
1995252N08142 1995 62 WP MM POLLY 1995-09-20 03:00:00 TS 29.3145 143.078 main 693 675 PPPP__________ WP181995 29.3570 143.164 90 2 29.2865 143.032 5 72 962 9 77 77 9 350 350 29.3000 143.055 4 72 962 29.3145 143.063 T 75 960 16 53
1995252N08142 1995 62 WP MM POLLY 1995-09-20 06:00:00 TS 29.8000 143.875 70 965 tokyo main 681 673 OOOO__________ jtwc_wp WP181995 29.8000 143.900 90 2 29.8000 143.900 5 70 965 9 75 75 9 350 350 0 29.8000 143.900 4 68 965 29.8000 143.800 T 75 960 17 56
1995252N08142 1995 62 WP MM POLLY 1995-09-20 09:00:00 TS 30.2467 144.687 main 686 677 PPPP__________ WP181995 30.2844 144.706 90 2 30.2341 144.722 5 70 965 9 75 75 9 400 350 30.2341 144.722 4 68 965 30.2342 144.599 T 72 962 17 58
1995252N08142 1995 62 WP MM POLLY 1995-09-20 12:00:00 TS 30.7250 145.575 70 965 tokyo main 697 688 OOOO__________ jtwc_wp WP181995 30.8000 145.600 90 2 30.7000 145.600 5 70 965 9 75 75 3 450 350 0 30.7000 145.600 4 68 965 30.7000 145.500 T 70 965 19 57
1995252N08142 1995 62 WP MM POLLY 1995-09-20 15:00:00 TS 31.2861 146.566 main 720 719 PPPP__________ WP181995 31.3271 146.571 87 2 31.2774 146.585 5 67 967 9 72 72 3 450 350 31.2774 146.585 4 68 967 31.2624 146.521 T 67 967 21 56
1995252N08142 1995 62 WP MM POLLY 1995-09-20 18:00:00 TS 31.9000 147.600 65 970 tokyo main 748 748 OOOO__________ jtwc_wp WP181995 31.9000 147.600 85 2 31.9000 147.600 5 65 970 9 70 70 3 450 350 0 31.9000 147.600 4 68 970 31.9000 147.600 T 65 970 21 54
1995252N08142 1995 62 WP MM POLLY 1995-09-20 21:00:00 TS 32.5113 148.565 main 792 792 PPPP__________ WP181995 32.5109 148.608 85 2 32.4753 148.508 5 65 970 9 70 70 3 450 350 32.4753 148.508 4 68 970 32.5838 148.637 T 65 970 21 53
1995252N08142 1995 62 WP MM POLLY 1995-09-21 00:00:00 TS 33.1750 149.600 65 970 tokyo main 843 843 OOOO__________ jtwc_wp WP181995 33.2000 149.700 85 2 33.1000 149.500 5 65 970 9 70 70 3 450 350 0 33.1000 149.500 4 68 970 33.3000 149.700 T 65 970 23 53
1995252N08142 1995 62 WP MM POLLY 1995-09-21 03:00:00 TS 33.8838 150.774 main 923 923 PPPP__________ WP181995 33.9846 150.956 85 2 33.7882 150.692 5 62 972 9 65 65 3 450 350 33.7957 150.691 4 66 972 33.9668 150.758 T 65 970 26 54
1995252N08142 1995 62 WP MM POLLY 1995-09-21 06:00:00 TS 34.6800 152.127 60 975 tokyo main 1020 1020 OOOO__________ jtwc_wp WP181995 34.8000 152.300 85 2 34.6000 152.100 4 60 975 9 60 60 3 450 350 0 34.6000 152.100 4 64 975 34.7000 152.000 T 65 970 29 55
1995252N08142 1995 62 WP MM POLLY 1995-09-21 09:00:00 TS 35.5245 153.656 main 1107 1098 PPPP__________ WP181995 35.5330 153.625 82 1 35.5243 153.722 4 55 977 9 3 450 350 35.5233 153.727 4 61 977 35.5169 153.585 T 60 975 31 55
1995252N08142 1995 62 WP MM POLLY 1995-09-21 12:00:00 TS 36.4667 155.308 50 980 tokyo main 1114 1075 OOOO__________ jtwc_wp WP181995 36.3000 155.000 80 1 36.6000 155.500 4 50 980 9 3 450 350 0 36.5000 155.500 3 58 980 36.5000 155.400 STS 55 980 34 53
1995252N08142 1995 62 WP MM POLLY 1995-09-21 15:00:00 TS 37.5871 157.037 main 1075 1064 PP_P__________ WP181995 37.1840 156.479 75 1 37.9358 157.459 4 983 9 3 3 37.6958 157.311 STS 50 985 34 51
1995252N08142 1995 62 WP MM POLLY 1995-09-21 18:00:00 ET 38.6444 158.678 986 tokyo main 1071 1061 OO_O__________ jtwc_wp WP181995 38.1000 158.000 70 1 39.1000 159.200 6 986 0 0 0 39.0000 159.300 TS 45 990 28 52
1995252N08142 1995 62 WP MM POLLY 1995-09-21 21:00:00 ET 39.3204 159.849 main 1073 1070 PP____________ WP181995 38.9852 159.495 67 1 39.6556 160.203 6 989 0 0 TS 22 55
1995252N08142 1995 62 WP MM POLLY 1995-09-22 00:00:00 ET 39.9000 161.000 992 tokyo main 1099 1098 OO____________ jtwc_wp WP181995 39.8000 161.000 65 1 40.0000 161.000 6 992 0 0 0 23 58
1995252N08142 1995 62 WP MM POLLY 1995-09-22 03:00:00 ET 40.5229 162.370 main 1148 1142 PP____________ WP181995 40.5156 162.545 57 0 40.5302 162.196 6 992 0 0 24 62
1995252N08142 1995 62 WP MM POLLY 1995-09-22 06:00:00 ET 41.0500 163.800 992 tokyo main 1180 1180 OO____________ jtwc_wp WP181995 41.1000 164.100 50 0 41.0000 163.500 6 992 0 0 0 23 67
1995252N08142 1995 62 WP MM POLLY 1995-09-22 09:00:00 ET 41.4290 165.188 main 1211 1206 PP____________ WP181995 41.5731 165.659 45 0 41.2848 164.716 6 992 0 0 22 73
1995252N08142 1995 62 WP MM POLLY 1995-09-22 12:00:00 ET 41.7000 166.600 992 tokyo main 1250 1250 OO____________ jtwc_wp WP181995 41.9000 167.200 40 0 41.5000 166.000 6 992 0 0 0 22 76
1995252N08142 1995 62 WP MM POLLY 1995-09-22 15:00:00 ET 41.9514 168.096 main 1303 1303 PP____________ WP181995 42.1160 168.731 37 0 41.7869 167.461 6 994 0 0 23 80
1995252N08142 1995 62 WP MM POLLY 1995-09-22 18:00:00 ET 42.1000 169.600 996 tokyo main 1374 1374 OO____________ jtwc_wp WP181995 42.2000 170.200 35 0 42.0000 169.000 6 996 0 0 0 22 86
1995252N08142 1995 62 WP MM POLLY 1995-09-22 21:00:00 ET 42.1178 171.038 main 1443 1443 PP____________ WP181995 42.2000 171.573 35 0 42.0355 170.503 6 996 0 0 21 91
1995252N08142 1995 62 WP MM POLLY 1995-09-23 00:00:00 ET 42.0500 172.450 996 tokyo main 1523 1523 OO____________ jtwc_wp WP181995 42.1000 172.900 35 0 42.0000 172.000 6 996 0 0 0 21 95
1995252N08142 1995 62 WP MM POLLY 1995-09-23 03:00:00 ET 41.9495 173.913 main 1610 1610 PP____________ WP181995 41.8984 174.252 32 -1 42.0006 173.575 6 995 0 0 21 95
1995252N08142 1995 62 WP MM POLLY 1995-09-23 06:00:00 ET 41.8500 175.300 994 tokyo main 1678 1647 OO____________ jtwc_wp WP181995 41.7000 175.600 30 -1 42.0000 175.000 6 994 0 0 0 19 94
1995252N08142 1995 62 WP MM POLLY 1995-09-23 09:00:00 ET 41.8062 176.467 main 1642 1589 PP____________ WP181995 41.6179 176.934 27 -1 41.9946 176.000 6 994 0 0 17 92
1995252N08142 1995 62 WP MM POLLY 1995-09-23 12:00:00 ET 41.8000 177.650 994 tokyo main 1585 1526 OO____________ jtwc_wp WP181995 41.6000 178.300 25 -1 42.0000 177.000 6 994 0 0 0 19 91
1995252N08142 1995 62 WP MM POLLY 1995-09-23 15:00:00 ET 41.7699 179.085 main 1522 1463 PP____________ WP181995 41.5391 179.746 25 -1 42.0006 178.425 6 994 0 0 22 90
1995252N08142 1995 62 EP CP POLLY 1995-09-23 18:00:00 ET 41.8000 180.600 994 tokyo main 1459 1396 OO____________ jtwc_wp WP181995 41.6000 -178.800 25 -1 42.0000 180.000 6 994 0 0 0 22 86
1995252N08142 1995 62 EP CP POLLY 1995-09-23 21:00:00 ET 41.9439 182.067 main 1392 1328 PP____________ WP181995 41.8853 -177.391 25 -1 42.0024 -178.475 6 994 0 0 22 81
1995252N08142 1995 62 EP CP POLLY 1995-09-24 00:00:00 ET 42.1500 183.500 main 1315 OO____________ jtwc_wp WP181995 42.3000 -176.000 25 -1 42.0000 183.000 6 994 0 0 0 22 79

Digital Typhoon Data and Search

About IBTrACS Database

This database is a web-friendly format of International Best Track Archive for Climate Stewardship (IBTrACS), a global best track data archive curated by NOAA dating back to 1842.

Updated: 2021-12-03